sensor_id;sensor_type;location;lat;lon;timestamp;P1;durP1;ratioP1;P2;durP2;ratioP2
71655;SDS011;59497;48.798;8.816;2023-04-24T00:02:14;1.17;;;0.40;;
71655;SDS011;59497;48.798;8.816;2023-04-24T00:04:40;1.50;;;0.40;;
71655;SDS011;59497;48.798;8.816;2023-04-24T00:07:06;1.40;;;0.23;;
71655;SDS011;59497;48.798;8.816;2023-04-24T00:09:31;2.03;;;0.50;;
71655;SDS011;59497;48.798;8.816;2023-04-24T00:11:57;1.43;;;0.37;;
71655;SDS011;59497;48.798;8.816;2023-04-24T00:14:22;2.27;;;0.40;;
71655;SDS011;59497;48.798;8.816;2023-04-24T00:16:47;1.53;;;0.40;;
71655;SDS011;59497;48.798;8.816;2023-04-24T00:19:12;0.93;;;0.40;;
71655;SDS011;59497;48.798;8.816;2023-04-24T00:21:37;1.33;;;0.30;;
71655;SDS011;59497;48.798;8.816;2023-04-24T00:24:03;2.23;;;0.30;;
71655;SDS011;59497;48.798;8.816;2023-04-24T00:26:28;0.57;;;0.20;;
71655;SDS011;59497;48.798;8.816;2023-04-24T00:28:53;1.83;;;0.50;;
71655;SDS011;59497;48.798;8.816;2023-04-24T00:31:18;1.25;;;0.38;;
71655;SDS011;59497;48.798;8.816;2023-04-24T00:33:44;1.03;;;0.40;;
71655;SDS011;59497;48.798;8.816;2023-04-24T00:36:09;1.10;;;0.20;;
71655;SDS011;59497;48.798;8.816;2023-04-24T00:38:34;0.50;;;0.20;;
71655;SDS011;59497;48.798;8.816;2023-04-24T00:40:59;1.10;;;0.53;;
71655;SDS011;59497;48.798;8.816;2023-04-24T00:43:24;1.47;;;0.40;;
71655;SDS011;59497;48.798;8.816;2023-04-24T00:45:50;0.97;;;0.20;;
71655;SDS011;59497;48.798;8.816;2023-04-24T00:48:15;2.40;;;0.43;;
71655;SDS011;59497;48.798;8.816;2023-04-24T00:50:41;1.33;;;0.40;;
71655;SDS011;59497;48.798;8.816;2023-04-24T00:53:06;1.43;;;0.37;;
71655;SDS011;59497;48.798;8.816;2023-04-24T00:55:31;1.53;;;0.57;;
71655;SDS011;59497;48.798;8.816;2023-04-24T00:57:57;0.93;;;0.20;;
71655;SDS011;59497;48.798;8.816;2023-04-24T01:00:22;0.50;;;0.30;;
71655;SDS011;59497;48.798;8.816;2023-04-24T01:02:47;0.87;;;0.20;;
71655;SDS011;59497;48.798;8.816;2023-04-24T01:05:13;0.60;;;0.20;;
71655;SDS011;59497;48.798;8.816;2023-04-24T01:07:40;2.53;;;0.30;;
71655;SDS011;59497;48.798;8.816;2023-04-24T01:10:09;0.80;;;0.45;;
71655;SDS011;59497;48.798;8.816;2023-04-24T01:12:34;0.67;;;0.40;;
71655;SDS011;59497;48.798;8.816;2023-04-24T01:14:59;0.93;;;0.20;;
71655;SDS011;59497;48.798;8.816;2023-04-24T01:17:25;0.90;;;0.20;;
71655;SDS011;59497;48.798;8.816;2023-04-24T01:19:50;0.87;;;0.43;;
71655;SDS011;59497;48.798;8.816;2023-04-24T01:22:18;0.75;;;0.45;;
71655;SDS011;59497;48.798;8.816;2023-04-24T01:24:43;0.67;;;0.40;;
71655;SDS011;59497;48.798;8.816;2023-04-24T01:27:09;1.13;;;0.40;;
71655;SDS011;59497;48.798;8.816;2023-04-24T01:29:35;0.85;;;0.43;;
71655;SDS011;59497;48.798;8.816;2023-04-24T01:32:00;0.43;;;0.27;;
71655;SDS011;59497;48.798;8.816;2023-04-24T01:34:26;1.83;;;0.37;;
71655;SDS011;59497;48.798;8.816;2023-04-24T01:36:51;0.53;;;0.40;;
71655;SDS011;59497;48.798;8.816;2023-04-24T01:39:16;2.27;;;0.40;;
71655;SDS011;59497;48.798;8.816;2023-04-24T01:41:41;1.27;;;0.30;;
71655;SDS011;59497;48.798;8.816;2023-04-24T01:44:06;0.65;;;0.22;;
71655;SDS011;59497;48.798;8.816;2023-04-24T01:46:32;1.60;;;0.47;;
71655;SDS011;59497;48.798;8.816;2023-04-24T01:48:59;0.40;;;0.20;;
71655;SDS011;59497;48.798;8.816;2023-04-24T01:51:25;0.87;;;0.37;;
71655;SDS011;59497;48.798;8.816;2023-04-24T01:53:50;1.23;;;0.40;;
71655;SDS011;59497;48.798;8.816;2023-04-24T01:56:15;1.27;;;0.63;;
71655;SDS011;59497;48.798;8.816;2023-04-24T01:58:40;3.10;;;0.33;;
71655;SDS011;59497;48.798;8.816;2023-04-24T02:01:06;0.93;;;0.30;;
71655;SDS011;59497;48.798;8.816;2023-04-24T02:03:31;0.73;;;0.30;;
71655;SDS011;59497;48.798;8.816;2023-04-24T02:05:56;1.80;;;0.50;;
71655;SDS011;59497;48.798;8.816;2023-04-24T02:08:21;0.73;;;0.40;;
71655;SDS011;59497;48.798;8.816;2023-04-24T02:10:47;1.67;;;0.70;;
71655;SDS011;59497;48.798;8.816;2023-04-24T02:13:12;1.80;;;0.77;;
71655;SDS011;59497;48.798;8.816;2023-04-24T02:15:37;1.07;;;0.60;;
71655;SDS011;59497;48.798;8.816;2023-04-24T02:18:02;1.27;;;0.30;;
71655;SDS011;59497;48.798;8.816;2023-04-24T02:20:27;1.03;;;0.40;;
71655;SDS011;59497;48.798;8.816;2023-04-24T02:22:52;0.60;;;0.40;;
71655;SDS011;59497;48.798;8.816;2023-04-24T02:25:18;2.27;;;0.53;;
71655;SDS011;59497;48.798;8.816;2023-04-24T02:27:43;1.05;;;0.50;;
71655;SDS011;59497;48.798;8.816;2023-04-24T02:30:08;1.40;;;0.60;;
71655;SDS011;59497;48.798;8.816;2023-04-24T02:32:33;2.93;;;0.80;;
71655;SDS011;59497;48.798;8.816;2023-04-24T02:34:59;0.90;;;0.50;;
71655;SDS011;59497;48.798;8.816;2023-04-24T02:37:24;0.73;;;0.50;;
71655;SDS011;59497;48.798;8.816;2023-04-24T02:39:49;1.30;;;0.70;;
71655;SDS011;59497;48.798;8.816;2023-04-24T02:42:14;0.70;;;0.60;;
71655;SDS011;59497;48.798;8.816;2023-04-24T02:44:40;1.40;;;0.50;;
71655;SDS011;59497;48.798;8.816;2023-04-24T02:47:05;0.73;;;0.57;;
71655;SDS011;59497;48.798;8.816;2023-04-24T02:49:30;2.20;;;0.60;;
71655;SDS011;59497;48.798;8.816;2023-04-24T02:51:56;0.90;;;0.70;;
71655;SDS011;59497;48.798;8.816;2023-04-24T02:54:21;2.00;;;0.67;;
71655;SDS011;59497;48.798;8.816;2023-04-24T02:56:46;1.13;;;0.50;;
71655;SDS011;59497;48.798;8.816;2023-04-24T02:59:11;0.70;;;0.47;;
71655;SDS011;59497;48.798;8.816;2023-04-24T03:01:36;1.33;;;0.40;;
71655;SDS011;59497;48.798;8.816;2023-04-24T03:04:02;0.50;;;0.47;;
71655;SDS011;59497;48.798;8.816;2023-04-24T03:06:27;0.57;;;0.47;;
71655;SDS011;59497;48.798;8.816;2023-04-24T03:08:53;0.63;;;0.33;;
71655;SDS011;59497;48.798;8.816;2023-04-24T03:11:18;0.60;;;0.30;;
71655;SDS011;59497;48.798;8.816;2023-04-24T03:13:44;1.37;;;0.77;;
71655;SDS011;59497;48.798;8.816;2023-04-24T03:16:09;1.13;;;0.80;;
71655;SDS011;59497;48.798;8.816;2023-04-24T03:18:34;1.10;;;0.63;;
71655;SDS011;59497;48.798;8.816;2023-04-24T03:21:00;0.80;;;0.50;;
71655;SDS011;59497;48.798;8.816;2023-04-24T03:23:25;0.60;;;0.60;;
71655;SDS011;59497;48.798;8.816;2023-04-24T03:25:50;0.33;;;0.30;;
71655;SDS011;59497;48.798;8.816;2023-04-24T03:28:16;1.50;;;0.57;;
71655;SDS011;59497;48.798;8.816;2023-04-24T03:30:41;0.40;;;0.40;;
71655;SDS011;59497;48.798;8.816;2023-04-24T03:33:06;2.17;;;0.57;;
71655;SDS011;59497;48.798;8.816;2023-04-24T03:35:31;0.83;;;0.43;;
71655;SDS011;59497;48.798;8.816;2023-04-24T03:37:56;0.87;;;0.40;;
71655;SDS011;59497;48.798;8.816;2023-04-24T03:40:22;0.87;;;0.60;;
71655;SDS011;59497;48.798;8.816;2023-04-24T03:42:47;1.07;;;0.50;;
71655;SDS011;59497;48.798;8.816;2023-04-24T03:45:15;1.23;;;0.40;;
71655;SDS011;59497;48.798;8.816;2023-04-24T03:47:40;1.00;;;0.63;;
71655;SDS011;59497;48.798;8.816;2023-04-24T03:50:05;1.60;;;1.40;;
71655;SDS011;59497;48.798;8.816;2023-04-24T03:52:31;2.30;;;0.60;;
71655;SDS011;59497;48.798;8.816;2023-04-24T03:54:56;1.50;;;0.60;;
71655;SDS011;59497;48.798;8.816;2023-04-24T03:57:21;0.70;;;0.52;;
71655;SDS011;59497;48.798;8.816;2023-04-24T03:59:46;0.63;;;0.50;;
71655;SDS011;59497;48.798;8.816;2023-04-24T04:02:12;0.70;;;0.47;;
71655;SDS011;59497;48.798;8.816;2023-04-24T04:04:37;1.40;;;0.73;;
71655;SDS011;59497;48.798;8.816;2023-04-24T04:07:02;0.77;;;0.45;;
71655;SDS011;59497;48.798;8.816;2023-04-24T04:09:28;1.57;;;0.63;;
71655;SDS011;59497;48.798;8.816;2023-04-24T04:11:53;1.93;;;0.60;;
71655;SDS011;59497;48.798;8.816;2023-04-24T04:14:18;0.82;;;0.60;;
71655;SDS011;59497;48.798;8.816;2023-04-24T04:16:43;2.90;;;0.60;;
71655;SDS011;59497;48.798;8.816;2023-04-24T04:19:09;3.90;;;0.70;;
71655;SDS011;59497;48.798;8.816;2023-04-24T04:21:34;1.20;;;0.60;;
71655;SDS011;59497;48.798;8.816;2023-04-24T04:23:59;1.97;;;0.60;;
71655;SDS011;59497;48.798;8.816;2023-04-24T04:26:24;2.35;;;0.60;;
71655;SDS011;59497;48.798;8.816;2023-04-24T04:28:50;1.60;;;0.60;;
71655;SDS011;59497;48.798;8.816;2023-04-24T04:31:16;0.60;;;0.32;;
71655;SDS011;59497;48.798;8.816;2023-04-24T04:33:41;0.90;;;0.40;;
71655;SDS011;59497;48.798;8.816;2023-04-24T04:36:06;1.73;;;0.50;;
71655;SDS011;59497;48.798;8.816;2023-04-24T04:38:31;1.77;;;0.50;;
71655;SDS011;59497;48.798;8.816;2023-04-24T04:40:56;0.50;;;0.47;;
71655;SDS011;59497;48.798;8.816;2023-04-24T04:43:24;0.87;;;0.47;;
71655;SDS011;59497;48.798;8.816;2023-04-24T04:45:50;0.93;;;0.55;;
71655;SDS011;59497;48.798;8.816;2023-04-24T04:48:16;0.73;;;0.40;;
71655;SDS011;59497;48.798;8.816;2023-04-24T04:50:42;1.00;;;0.80;;
71655;SDS011;59497;48.798;8.816;2023-04-24T04:53:07;1.90;;;1.20;;
71655;SDS011;59497;48.798;8.816;2023-04-24T04:55:32;1.70;;;0.73;;
71655;SDS011;59497;48.798;8.816;2023-04-24T04:57:58;1.60;;;0.70;;
71655;SDS011;59497;48.798;8.816;2023-04-24T05:00:23;1.38;;;0.82;;
71655;SDS011;59497;48.798;8.816;2023-04-24T05:02:51;1.00;;;0.80;;
71655;SDS011;59497;48.798;8.816;2023-04-24T05:05:16;2.10;;;0.90;;
71655;SDS011;59497;48.798;8.816;2023-04-24T05:07:42;1.90;;;0.90;;
71655;SDS011;59497;48.798;8.816;2023-04-24T05:10:07;2.33;;;1.10;;
71655;SDS011;59497;48.798;8.816;2023-04-24T05:12:33;1.87;;;0.80;;
71655;SDS011;59497;48.798;8.816;2023-04-24T05:14:58;1.00;;;0.80;;
71655;SDS011;59497;48.798;8.816;2023-04-24T05:17:23;1.63;;;0.80;;
71655;SDS011;59497;48.798;8.816;2023-04-24T05:19:48;1.93;;;1.10;;
71655;SDS011;59497;48.798;8.816;2023-04-24T05:22:14;1.20;;;0.97;;
71655;SDS011;59497;48.798;8.816;2023-04-24T05:24:39;2.42;;;1.17;;
71655;SDS011;59497;48.798;8.816;2023-04-24T05:27:04;2.93;;;1.20;;
71655;SDS011;59497;48.798;8.816;2023-04-24T05:29:30;1.30;;;1.00;;
71655;SDS011;59497;48.798;8.816;2023-04-24T05:31:58;2.40;;;1.05;;
71655;SDS011;59497;48.798;8.816;2023-04-24T05:34:24;2.23;;;1.30;;
71655;SDS011;59497;48.798;8.816;2023-04-24T05:36:49;1.93;;;1.10;;
71655;SDS011;59497;48.798;8.816;2023-04-24T05:39:15;2.83;;;1.45;;
71655;SDS011;59497;48.798;8.816;2023-04-24T05:41:40;1.60;;;1.20;;
71655;SDS011;59497;48.798;8.816;2023-04-24T05:44:06;1.47;;;1.37;;
71655;SDS011;59497;48.798;8.816;2023-04-24T05:46:31;2.60;;;1.10;;
71655;SDS011;59497;48.798;8.816;2023-04-24T05:48:56;2.27;;;1.20;;
71655;SDS011;59497;48.798;8.816;2023-04-24T05:51:21;3.53;;;1.30;;
71655;SDS011;59497;48.798;8.816;2023-04-24T05:53:46;1.40;;;1.17;;
71655;SDS011;59497;48.798;8.816;2023-04-24T05:56:12;2.57;;;1.30;;
71655;SDS011;59497;48.798;8.816;2023-04-24T05:58:37;1.80;;;1.30;;
71655;SDS011;59497;48.798;8.816;2023-04-24T06:01:02;2.10;;;1.20;;
71655;SDS011;59497;48.798;8.816;2023-04-24T06:03:28;2.33;;;1.30;;
71655;SDS011;59497;48.798;8.816;2023-04-24T06:05:53;2.50;;;1.27;;
71655;SDS011;59497;48.798;8.816;2023-04-24T06:08:18;2.43;;;1.20;;
71655;SDS011;59497;48.798;8.816;2023-04-24T06:10:44;2.63;;;1.53;;
71655;SDS011;59497;48.798;8.816;2023-04-24T06:13:09;2.73;;;1.20;;
71655;SDS011;59497;48.798;8.816;2023-04-24T06:15:34;1.60;;;1.20;;
71655;SDS011;59497;48.798;8.816;2023-04-24T06:18:00;2.90;;;1.83;;
71655;SDS011;59497;48.798;8.816;2023-04-24T06:20:26;2.03;;;1.67;;
71655;SDS011;59497;48.798;8.816;2023-04-24T06:22:51;4.95;;;1.52;;
71655;SDS011;59497;48.798;8.816;2023-04-24T06:25:17;3.57;;;1.30;;
71655;SDS011;59497;48.798;8.816;2023-04-24T06:27:42;1.97;;;1.40;;
71655;SDS011;59497;48.798;8.816;2023-04-24T06:30:07;2.20;;;1.23;;
71655;SDS011;59497;48.798;8.816;2023-04-24T06:32:33;1.63;;;1.33;;
71655;SDS011;59497;48.798;8.816;2023-04-24T06:34:58;1.80;;;1.50;;
71655;SDS011;59497;48.798;8.816;2023-04-24T06:37:23;2.50;;;1.50;;
71655;SDS011;59497;48.798;8.816;2023-04-24T06:39:48;2.20;;;1.23;;
71655;SDS011;59497;48.798;8.816;2023-04-24T06:42:13;2.30;;;1.13;;
71655;SDS011;59497;48.798;8.816;2023-04-24T06:44:39;2.13;;;1.48;;
71655;SDS011;59497;48.798;8.816;2023-04-24T06:47:08;1.33;;;1.00;;
71655;SDS011;59497;48.798;8.816;2023-04-24T06:49:34;1.92;;;1.38;;
71655;SDS011;59497;48.798;8.816;2023-04-24T06:51:59;2.75;;;1.27;;
71655;SDS011;59497;48.798;8.816;2023-04-24T06:54:24;2.20;;;1.37;;
71655;SDS011;59497;48.798;8.816;2023-04-24T06:56:49;2.45;;;1.50;;
71655;SDS011;59497;48.798;8.816;2023-04-24T06:59:16;1.55;;;1.27;;
71655;SDS011;59497;48.798;8.816;2023-04-24T07:01:41;1.73;;;1.07;;
71655;SDS011;59497;48.798;8.816;2023-04-24T07:04:06;2.47;;;1.33;;
71655;SDS011;59497;48.798;8.816;2023-04-24T07:06:31;2.60;;;1.40;;
71655;SDS011;59497;48.798;8.816;2023-04-24T07:08:57;2.70;;;1.70;;
71655;SDS011;59497;48.798;8.816;2023-04-24T07:11:23;1.65;;;1.33;;
71655;SDS011;59497;48.798;8.816;2023-04-24T07:13:48;1.95;;;1.08;;
71655;SDS011;59497;48.798;8.816;2023-04-24T07:16:13;1.13;;;1.00;;
71655;SDS011;59497;48.798;8.816;2023-04-24T07:18:39;2.60;;;1.20;;
71655;SDS011;59497;48.798;8.816;2023-04-24T07:21:04;3.03;;;1.20;;
71655;SDS011;59497;48.798;8.816;2023-04-24T07:23:29;3.03;;;0.80;;
71655;SDS011;59497;48.798;8.816;2023-04-24T07:25:55;1.73;;;1.25;;
71655;SDS011;59497;48.798;8.816;2023-04-24T07:28:20;1.33;;;1.23;;
71655;SDS011;59497;48.798;8.816;2023-04-24T07:30:46;1.97;;;1.30;;
71655;SDS011;59497;48.798;8.816;2023-04-24T07:33:11;1.33;;;1.20;;
71655;SDS011;59497;48.798;8.816;2023-04-24T07:35:38;2.00;;;0.95;;
71655;SDS011;59497;48.798;8.816;2023-04-24T07:38:03;1.27;;;0.90;;
71655;SDS011;59497;48.798;8.816;2023-04-24T07:40:28;1.00;;;0.73;;
71655;SDS011;59497;48.798;8.816;2023-04-24T07:42:53;2.80;;;1.13;;
71655;SDS011;59497;48.798;8.816;2023-04-24T07:45:19;2.70;;;1.00;;
71655;SDS011;59497;48.798;8.816;2023-04-24T07:47:44;2.23;;;0.90;;
71655;SDS011;59497;48.798;8.816;2023-04-24T07:50:10;2.22;;;0.85;;
71655;SDS011;59497;48.798;8.816;2023-04-24T07:52:36;1.43;;;1.07;;
71655;SDS011;59497;48.798;8.816;2023-04-24T07:55:01;2.97;;;1.00;;
71655;SDS011;59497;48.798;8.816;2023-04-24T07:57:27;1.27;;;1.10;;
71655;SDS011;59497;48.798;8.816;2023-04-24T07:59:52;1.70;;;1.00;;
71655;SDS011;59497;48.798;8.816;2023-04-24T08:02:17;4.20;;;1.27;;
71655;SDS011;59497;48.798;8.816;2023-04-24T08:04:43;2.10;;;1.40;;
71655;SDS011;59497;48.798;8.816;2023-04-24T08:07:08;2.10;;;1.20;;
71655;SDS011;59497;48.798;8.816;2023-04-24T08:09:33;2.73;;;1.43;;
71655;SDS011;59497;48.798;8.816;2023-04-24T08:11:58;2.20;;;1.17;;
71655;SDS011;59497;48.798;8.816;2023-04-24T08:14:23;2.17;;;1.50;;
71655;SDS011;59497;48.798;8.816;2023-04-24T08:16:49;1.50;;;1.23;;
71655;SDS011;59497;48.798;8.816;2023-04-24T08:19:14;2.63;;;1.37;;
71655;SDS011;59497;48.798;8.816;2023-04-24T08:21:39;2.60;;;1.40;;
71655;SDS011;59497;48.798;8.816;2023-04-24T08:24:04;2.33;;;1.33;;
71655;SDS011;59497;48.798;8.816;2023-04-24T08:26:32;2.70;;;1.17;;
71655;SDS011;59497;48.798;8.816;2023-04-24T08:28:57;1.80;;;1.00;;
71655;SDS011;59497;48.798;8.816;2023-04-24T08:31:22;2.30;;;1.30;;
71655;SDS011;59497;48.798;8.816;2023-04-24T08:33:49;2.45;;;1.25;;
71655;SDS011;59497;48.798;8.816;2023-04-24T08:36:15;2.50;;;1.50;;
71655;SDS011;59497;48.798;8.816;2023-04-24T08:38:40;1.50;;;1.40;;
71655;SDS011;59497;48.798;8.816;2023-04-24T08:41:05;1.97;;;1.50;;
71655;SDS011;59497;48.798;8.816;2023-04-24T08:43:32;2.78;;;1.30;;
71655;SDS011;59497;48.798;8.816;2023-04-24T08:45:58;2.93;;;1.07;;
71655;SDS011;59497;48.798;8.816;2023-04-24T08:48:24;1.73;;;1.17;;
71655;SDS011;59497;48.798;8.816;2023-04-24T08:50:50;2.75;;;0.98;;
71655;SDS011;59497;48.798;8.816;2023-04-24T08:53:15;2.63;;;1.00;;
71655;SDS011;59497;48.798;8.816;2023-04-24T08:55:40;1.80;;;1.20;;
71655;SDS011;59497;48.798;8.816;2023-04-24T08:58:06;2.57;;;1.23;;
71655;SDS011;59497;48.798;8.816;2023-04-24T09:00:31;2.53;;;1.10;;
71655;SDS011;59497;48.798;8.816;2023-04-24T09:02:56;1.87;;;1.30;;
71655;SDS011;59497;48.798;8.816;2023-04-24T09:05:22;4.07;;;1.33;;
71655;SDS011;59497;48.798;8.816;2023-04-24T09:07:53;1.63;;;1.25;;
71655;SDS011;59497;48.798;8.816;2023-04-24T09:10:19;1.52;;;1.20;;
71655;SDS011;59497;48.798;8.816;2023-04-24T09:12:45;2.17;;;1.27;;
71655;SDS011;59497;48.798;8.816;2023-04-24T09:15:10;3.72;;;1.20;;
71655;SDS011;59497;48.798;8.816;2023-04-24T09:17:36;1.80;;;1.23;;
71655;SDS011;59497;48.798;8.816;2023-04-24T09:20:01;1.67;;;1.20;;
71655;SDS011;59497;48.798;8.816;2023-04-24T09:22:29;1.20;;;1.10;;
71655;SDS011;59497;48.798;8.816;2023-04-24T09:25:04;2.17;;;1.10;;
71655;SDS011;59497;48.798;8.816;2023-04-24T09:27:31;1.80;;;1.23;;
71655;SDS011;59497;48.798;8.816;2023-04-24T09:29:56;1.50;;;1.00;;
71655;SDS011;59497;48.798;8.816;2023-04-24T09:32:22;2.50;;;0.85;;
71655;SDS011;59497;48.798;8.816;2023-04-24T09:34:47;2.33;;;1.20;;
71655;SDS011;59497;48.798;8.816;2023-04-24T09:37:29;2.05;;;0.88;;
71655;SDS011;59497;48.798;8.816;2023-04-24T09:40:15;1.83;;;1.00;;
71655;SDS011;59497;48.798;8.816;2023-04-24T09:42:43;3.20;;;1.30;;
71655;SDS011;59497;48.798;8.816;2023-04-24T09:45:08;4.00;;;1.45;;
71655;SDS011;59497;48.798;8.816;2023-04-24T09:47:40;1.70;;;0.70;;
71655;SDS011;59497;48.798;8.816;2023-04-24T09:50:09;1.33;;;1.00;;
71655;SDS011;59497;48.798;8.816;2023-04-24T09:52:35;1.45;;;0.95;;
71655;SDS011;59497;48.798;8.816;2023-04-24T09:55:00;1.37;;;0.83;;
71655;SDS011;59497;48.798;8.816;2023-04-24T09:57:25;1.95;;;0.80;;
71655;SDS011;59497;48.798;8.816;2023-04-24T09:59:50;3.10;;;1.00;;
71655;SDS011;59497;48.798;8.816;2023-04-24T10:02:18;1.17;;;0.90;;
71655;SDS011;59497;48.798;8.816;2023-04-24T10:04:53;1.38;;;0.93;;
71655;SDS011;59497;48.798;8.816;2023-04-24T10:07:18;2.22;;;1.13;;
71655;SDS011;59497;48.798;8.816;2023-04-24T10:09:44;1.17;;;0.83;;
71655;SDS011;59497;48.798;8.816;2023-04-24T10:12:09;1.60;;;0.90;;
71655;SDS011;59497;48.798;8.816;2023-04-24T10:14:35;2.30;;;1.00;;
71655;SDS011;59497;48.798;8.816;2023-04-24T10:17:01;2.73;;;0.90;;
71655;SDS011;59497;48.798;8.816;2023-04-24T10:19:26;1.97;;;1.00;;
71655;SDS011;59497;48.798;8.816;2023-04-24T10:21:51;1.70;;;1.30;;
71655;SDS011;59497;48.798;8.816;2023-04-24T10:24:18;1.75;;;1.10;;
71655;SDS011;59497;48.798;8.816;2023-04-24T10:26:44;2.30;;;1.00;;
71655;SDS011;59497;48.798;8.816;2023-04-24T10:29:10;1.33;;;0.77;;
71655;SDS011;59497;48.798;8.816;2023-04-24T10:31:37;1.52;;;0.73;;
71655;SDS011;59497;48.798;8.816;2023-04-24T10:34:03;2.22;;;1.20;;
71655;SDS011;59497;48.798;8.816;2023-04-24T10:36:29;1.80;;;0.70;;
71655;SDS011;59497;48.798;8.816;2023-04-24T10:38:57;2.80;;;0.80;;
71655;SDS011;59497;48.798;8.816;2023-04-24T10:41:23;2.83;;;1.00;;
71655;SDS011;59497;48.798;8.816;2023-04-24T10:44:10;1.25;;;0.80;;
71655;SDS011;59497;48.798;8.816;2023-04-24T10:46:35;1.65;;;0.70;;
71655;SDS011;59497;48.798;8.816;2023-04-24T10:49:07;1.13;;;0.67;;
71655;SDS011;59497;48.798;8.816;2023-04-24T10:51:52;1.40;;;0.75;;
71655;SDS011;59497;48.798;8.816;2023-04-24T10:54:27;2.10;;;1.08;;
71655;SDS011;59497;48.798;8.816;2023-04-24T10:56:55;3.35;;;1.02;;
71655;SDS011;59497;48.798;8.816;2023-04-24T10:59:38;1.20;;;1.05;;
71655;SDS011;59497;48.798;8.816;2023-04-24T11:02:03;2.53;;;1.27;;
71655;SDS011;59497;48.798;8.816;2023-04-24T11:04:32;1.10;;;0.67;;
71655;SDS011;59497;48.798;8.816;2023-04-24T11:06:57;1.58;;;1.08;;
71655;SDS011;59497;48.798;8.816;2023-04-24T11:09:23;3.33;;;1.23;;
71655;SDS011;59497;48.798;8.816;2023-04-24T11:11:50;2.22;;;1.20;;
71655;SDS011;59497;48.798;8.816;2023-04-24T11:14:27;2.08;;;1.02;;
71655;SDS011;59497;48.798;8.816;2023-04-24T11:16:52;1.63;;;1.05;;
71655;SDS011;59497;48.798;8.816;2023-04-24T11:19:19;2.33;;;0.77;;
71655;SDS011;59497;48.798;8.816;2023-04-24T11:24:26;1.40;;;0.90;;
71655;SDS011;59497;48.798;8.816;2023-04-24T11:26:56;1.55;;;1.13;;
71655;SDS011;59497;48.798;8.816;2023-04-24T11:29:21;2.65;;;1.30;;
71655;SDS011;59497;48.798;8.816;2023-04-24T11:31:47;4.03;;;1.10;;
71655;SDS011;59497;48.798;8.816;2023-04-24T11:34:16;1.50;;;1.23;;
71655;SDS011;59497;48.798;8.816;2023-04-24T11:36:45;2.43;;;1.10;;
71655;SDS011;59497;48.798;8.816;2023-04-24T11:39:11;1.98;;;1.60;;
71655;SDS011;59497;48.798;8.816;2023-04-24T11:41:36;2.13;;;1.45;;
71655;SDS011;59497;48.798;8.816;2023-04-24T11:44:02;1.70;;;1.50;;
71655;SDS011;59497;48.798;8.816;2023-04-24T11:46:28;2.53;;;1.17;;
71655;SDS011;59497;48.798;8.816;2023-04-24T11:48:54;2.03;;;1.30;;
71655;SDS011;59497;48.798;8.816;2023-04-24T11:51:19;1.63;;;0.97;;
71655;SDS011;59497;48.798;8.816;2023-04-24T11:53:45;1.63;;;0.70;;
71655;SDS011;59497;48.798;8.816;2023-04-24T11:56:10;1.60;;;1.00;;
71655;SDS011;59497;48.798;8.816;2023-04-24T11:58:35;1.43;;;1.13;;
71655;SDS011;59497;48.798;8.816;2023-04-24T12:01:01;2.25;;;1.15;;
71655;SDS011;59497;48.798;8.816;2023-04-24T12:03:26;1.30;;;1.10;;
71655;SDS011;59497;48.798;8.816;2023-04-24T12:05:51;1.50;;;1.03;;
71655;SDS011;59497;48.798;8.816;2023-04-24T12:08:29;1.00;;;0.90;;
71655;SDS011;59497;48.798;8.816;2023-04-24T12:10:54;3.53;;;1.10;;
71655;SDS011;59497;48.798;8.816;2023-04-24T12:13:19;2.63;;;1.27;;
71655;SDS011;59497;48.798;8.816;2023-04-24T12:15:45;2.30;;;1.20;;
71655;SDS011;59497;48.798;8.816;2023-04-24T12:18:11;2.60;;;1.00;;
71655;SDS011;59497;48.798;8.816;2023-04-24T12:20:37;2.40;;;1.05;;
71655;SDS011;59497;48.798;8.816;2023-04-24T12:23:02;1.50;;;1.00;;
71655;SDS011;59497;48.798;8.816;2023-04-24T12:25:28;2.83;;;1.00;;
71655;SDS011;59497;48.798;8.816;2023-04-24T12:30:28;2.58;;;0.90;;
71655;SDS011;59497;48.798;8.816;2023-04-24T12:32:54;1.57;;;0.97;;
71655;SDS011;59497;48.798;8.816;2023-04-24T12:35:20;1.13;;;0.70;;
71655;SDS011;59497;48.798;8.816;2023-04-24T12:37:47;1.90;;;1.23;;
71655;SDS011;59497;48.798;8.816;2023-04-24T12:40:13;1.27;;;1.00;;
71655;SDS011;59497;48.798;8.816;2023-04-24T12:42:45;1.70;;;0.90;;
71655;SDS011;59497;48.798;8.816;2023-04-24T12:45:11;3.25;;;1.63;;
71655;SDS011;59497;48.798;8.816;2023-04-24T12:47:40;2.35;;;1.10;;
71655;SDS011;59497;48.798;8.816;2023-04-24T12:50:06;2.38;;;1.20;;
71655;SDS011;59497;48.798;8.816;2023-04-24T12:52:32;3.53;;;1.67;;
71655;SDS011;59497;48.798;8.816;2023-04-24T12:54:57;2.20;;;1.67;;
71655;SDS011;59497;48.798;8.816;2023-04-24T12:57:23;2.92;;;2.05;;
71655;SDS011;59497;48.798;8.816;2023-04-24T12:59:48;3.20;;;1.30;;
71655;SDS011;59497;48.798;8.816;2023-04-24T13:02:13;1.80;;;1.60;;
71655;SDS011;59497;48.798;8.816;2023-04-24T13:04:42;1.40;;;1.17;;
71655;SDS011;59497;48.798;8.816;2023-04-24T13:07:07;2.23;;;1.47;;
71655;SDS011;59497;48.798;8.816;2023-04-24T13:09:34;3.23;;;1.97;;
71655;SDS011;59497;48.798;8.816;2023-04-24T13:11:59;1.88;;;1.50;;
71655;SDS011;59497;48.798;8.816;2023-04-24T13:14:25;1.88;;;1.35;;
71655;SDS011;59497;48.798;8.816;2023-04-24T13:16:51;2.80;;;1.43;;
71655;SDS011;59497;48.798;8.816;2023-04-24T13:19:16;2.20;;;1.80;;
71655;SDS011;59497;48.798;8.816;2023-04-24T13:21:41;1.30;;;1.13;;
71655;SDS011;59497;48.798;8.816;2023-04-24T13:24:06;2.60;;;1.20;;
71655;SDS011;59497;48.798;8.816;2023-04-24T13:26:33;3.70;;;1.40;;
71655;SDS011;59497;48.798;8.816;2023-04-24T13:28:58;1.77;;;1.40;;
71655;SDS011;59497;48.798;8.816;2023-04-24T13:31:24;2.03;;;1.20;;
71655;SDS011;59497;48.798;8.816;2023-04-24T13:33:49;2.50;;;0.87;;
71655;SDS011;59497;48.798;8.816;2023-04-24T13:36:14;1.47;;;0.87;;
71655;SDS011;59497;48.798;8.816;2023-04-24T13:38:40;1.73;;;1.20;;
71655;SDS011;59497;48.798;8.816;2023-04-24T13:41:05;2.10;;;1.50;;
71655;SDS011;59497;48.798;8.816;2023-04-24T13:43:30;1.73;;;1.53;;
71655;SDS011;59497;48.798;8.816;2023-04-24T13:45:55;2.00;;;1.50;;
71655;SDS011;59497;48.798;8.816;2023-04-24T13:48:20;3.45;;;1.45;;
71655;SDS011;59497;48.798;8.816;2023-04-24T13:50:46;2.60;;;1.93;;
71655;SDS011;59497;48.798;8.816;2023-04-24T13:53:13;1.70;;;1.60;;
71655;SDS011;59497;48.798;8.816;2023-04-24T13:55:38;2.27;;;1.60;;
71655;SDS011;59497;48.798;8.816;2023-04-24T13:58:04;2.47;;;1.70;;
71655;SDS011;59497;48.798;8.816;2023-04-24T14:00:29;2.88;;;1.55;;
71655;SDS011;59497;48.798;8.816;2023-04-24T14:02:55;2.30;;;1.60;;
71655;SDS011;59497;48.798;8.816;2023-04-24T14:05:21;1.90;;;1.40;;
71655;SDS011;59497;48.798;8.816;2023-04-24T14:07:46;2.13;;;1.40;;
71655;SDS011;59497;48.798;8.816;2023-04-24T14:10:12;2.67;;;2.00;;
71655;SDS011;59497;48.798;8.816;2023-04-24T14:12:37;2.00;;;1.42;;
71655;SDS011;59497;48.798;8.816;2023-04-24T14:15:02;2.93;;;1.63;;
71655;SDS011;59497;48.798;8.816;2023-04-24T14:17:29;2.15;;;1.63;;
71655;SDS011;59497;48.798;8.816;2023-04-24T14:19:54;2.87;;;1.97;;
71655;SDS011;59497;48.798;8.816;2023-04-24T14:22:21;2.15;;;1.90;;
71655;SDS011;59497;48.798;8.816;2023-04-24T14:24:46;2.50;;;1.70;;
71655;SDS011;59497;48.798;8.816;2023-04-24T14:27:11;2.60;;;2.10;;
71655;SDS011;59497;48.798;8.816;2023-04-24T14:29:36;1.87;;;1.43;;
71655;SDS011;59497;48.798;8.816;2023-04-24T14:32:01;4.10;;;2.10;;
71655;SDS011;59497;48.798;8.816;2023-04-24T14:34:27;2.33;;;1.87;;
71655;SDS011;59497;48.798;8.816;2023-04-24T14:36:52;3.20;;;2.00;;
71655;SDS011;59497;48.798;8.816;2023-04-24T14:39:17;3.27;;;1.43;;
71655;SDS011;59497;48.798;8.816;2023-04-24T14:41:42;2.87;;;1.90;;
71655;SDS011;59497;48.798;8.816;2023-04-24T14:44:08;2.08;;;1.85;;
71655;SDS011;59497;48.798;8.816;2023-04-24T14:46:33;2.37;;;1.50;;